Time;durP1;ratioP1;P1;durP2;ratioP2;P2;SDS_P1;SDS_P2;PMS_P1;PMS_P2;Temp;Humidity;BMP_temperature;BMP_pressure;BME280_temperature;BME280_humidity;BME280_pressure;Samples;Min_cycle;Max_cycle;Signal;HPM_P1;HPM_P2
2022/11/10 00:00:33;;;;;;;4.30;1.80;;;11.00;99.90;;;;;;5090781;28;20020;-55
2022/11/10 00:03:03;;;;;;;4.40;2.00;;;11.00;99.90;;;;;;5088309;28;20511;-53
2022/11/10 00:05:30;;;;;;;10.13;2.35;;;10.90;99.90;;;;;;5084754;28;20029;-55
2022/11/10 00:07:56;;;;;;;3.75;2.10;;;10.90;99.90;;;;;;5087529;28;20032;-54
2022/11/10 00:10:21;;;;;;;2.90;2.15;;;10.90;99.90;;;;;;5080934;28;20033;-55
2022/11/10 00:12:47;;;;;;;4.75;2.58;;;10.90;99.90;;;;;;5062675;28;20063;-56
2022/11/10 00:17:59;;;;;;;5.40;2.72;;;10.80;99.90;;;;;;5086327;28;20050;-56
2022/11/10 00:20:25;;;;;;;10.05;3.10;;;10.80;99.90;;;;;;5077500;28;20016;-55
2022/11/10 00:22:50;;;;;;;6.50;3.35;;;10.80;99.90;;;;;;5067245;28;20565;-57
2022/11/10 00:25:16;;;;;;;7.97;2.33;;;10.80;99.90;;;;;;5093349;28;20077;-55
2022/11/10 00:27:41;;;;;;;8.52;2.67;;;10.70;99.90;;;;;;5066667;28;20017;-56
2022/11/10 00:30:07;;;;;;;9.38;3.35;;;10.70;99.90;;;;;;5091268;28;20031;-55
2022/11/10 00:32:33;;;;;;;5.63;2.95;;;10.70;99.90;;;;;;5096020;28;20024;-52
2022/11/10 00:34:58;;;;;;;4.53;2.40;;;10.70;99.90;;;;;;5091090;28;20031;-55
2022/11/10 00:37:24;;;;;;;8.15;3.55;;;10.70;99.90;;;;;;5067309;28;20032;-55
2022/11/10 00:39:49;;;;;;;6.22;2.90;;;10.70;99.90;;;;;;5084780;28;20422;-53
2022/11/10 00:42:15;;;;;;;9.15;3.92;;;10.60;99.90;;;;;;5085725;28;20558;-57
2022/11/10 00:44:40;;;;;;;5.30;2.95;;;10.60;99.90;;;;;;5083499;28;20051;-55
2022/11/10 00:47:06;;;;;;;8.65;3.60;;;10.60;99.90;;;;;;5084501;28;20069;-57
2022/11/10 00:49:31;;;;;;;6.97;2.92;;;10.50;99.90;;;;;;5085993;28;20490;-54
2022/11/10 00:51:57;;;;;;;7.03;3.10;;;10.50;99.90;;;;;;5082322;28;20031;-57
2022/11/10 00:54:23;;;;;;;7.88;3.38;;;10.50;99.90;;;;;;5056965;28;20039;-56
2022/11/10 00:56:48;;;;;;;11.82;3.25;;;10.50;99.90;;;;;;5071520;28;20020;-52
2022/11/10 00:59:14;;;;;;;11.30;4.05;;;10.50;99.90;;;;;;5089603;28;20020;-53
2022/11/10 01:01:39;;;;;;;4.82;2.70;;;10.50;99.90;;;;;;5093190;28;20035;-55
2022/11/10 01:04:05;;;;;;;8.43;3.38;;;10.50;99.90;;;;;;5080974;28;20024;-55
2022/11/10 01:06:31;;;;;;;10.13;3.90;;;10.50;99.90;;;;;;5067052;28;20024;-54
2022/11/10 01:08:56;;;;;;;8.05;3.78;;;10.40;99.90;;;;;;5086666;28;20024;-56
2022/11/10 01:11:25;;;;;;;7.20;4.05;;;10.40;99.90;;;;;;5071746;28;20052;-56
2022/11/10 01:13:52;;;;;;;5.57;3.03;;;10.40;99.90;;;;;;5082351;28;20042;-56
2022/11/10 01:16:24;;;;;;;9.15;3.55;;;10.40;99.90;;;;;;5080824;28;20035;-55
2022/11/10 01:18:52;;;;;;;9.15;3.22;;;10.30;99.90;;;;;;5084526;28;20507;-58
2022/11/10 01:21:18;;;;;;;6.03;3.30;;;10.30;99.90;;;;;;5088530;28;20028;-52
2022/11/10 01:23:44;;;;;;;6.13;3.28;;;10.20;99.90;;;;;;5076359;28;20058;-54
2022/11/10 01:26:10;;;;;;;5.75;3.70;;;10.20;99.90;;;;;;5086587;28;20094;-56
2022/11/10 01:28:36;;;;;;;6.70;3.30;;;10.20;99.90;;;;;;5077102;28;20025;-54
2022/11/10 01:31:05;;;;;;;7.38;3.53;;;10.20;99.90;;;;;;5088045;28;20025;-54
2022/11/10 01:33:31;;;;;;;6.20;3.35;;;10.10;99.90;;;;;;5084575;28;20033;-55
2022/11/10 01:35:57;;;;;;;10.93;3.85;;;10.10;99.90;;;;;;5095248;28;20088;-56
2022/11/10 01:38:25;;;;;;;5.70;3.38;;;10.00;99.90;;;;;;5080735;28;20027;-54
2022/11/10 01:40:50;;;;;;;7.00;3.00;;;10.00;99.90;;;;;;5086161;28;20063;-54
2022/11/10 01:43:16;;;;;;;6.88;3.05;;;10.00;99.90;;;;;;5080317;28;20138;-57
2022/11/10 01:45:55;;;;;;;7.35;3.35;;;9.90;99.90;;;;;;5079469;28;20024;-53
2022/11/10 01:48:35;;;;;;;4.88;3.55;;;9.90;99.90;;;;;;5089184;28;20025;-54
2022/11/10 01:51:10;;;;;;;9.52;2.92;;;9.90;99.90;;;;;;5080311;28;20044;-54
2022/11/10 01:53:40;;;;;;;6.32;2.70;;;9.80;99.90;;;;;;5085459;28;20064;-52
2022/11/10 01:56:08;;;;;;;6.75;2.95;;;9.80;99.90;;;;;;5089482;28;20372;-52
2022/11/10 01:58:38;;;;;;;5.32;2.70;;;9.80;99.90;;;;;;5071949;28;20044;-55
2022/11/10 02:01:06;;;;;;;8.75;3.28;;;9.70;99.90;;;;;;5080930;28;20115;-52
2022/11/10 02:03:40;;;;;;;5.90;3.10;;;9.70;99.90;;;;;;5087020;28;20024;-55
2022/11/10 02:06:06;;;;;;;5.50;2.53;;;9.70;99.90;;;;;;5068050;28;20031;-56
2022/11/10 02:08:33;;;;;;;6.15;2.95;;;9.60;99.90;;;;;;5091028;28;20524;-54
2022/11/10 02:10:58;;;;;;;10.77;3.97;;;9.60;99.90;;;;;;5062704;28;20082;-56
2022/11/10 02:13:24;;;;;;;5.53;2.85;;;9.60;99.90;;;;;;5089083;28;20432;-53
2022/11/10 02:15:51;;;;;;;4.88;2.75;;;9.60;99.90;;;;;;5075820;28;20031;-55
2022/11/10 02:18:16;;;;;;;9.45;4.22;;;9.50;99.90;;;;;;5064888;28;20035;-53
2022/11/10 02:20:44;;;;;;;5.53;2.80;;;9.50;99.90;;;;;;5085457;28;20134;-55
2022/11/10 02:23:30;;;;;;;6.25;3.30;;;9.50;99.90;;;;;;5078837;28;20143;-52
2022/11/10 02:25:56;;;;;;;9.23;3.28;;;9.40;99.90;;;;;;5058385;28;20033;-56
2022/11/10 02:28:22;;;;;;;5.70;3.80;;;9.40;99.90;;;;;;5097151;28;20139;-52
2022/11/10 02:30:48;;;;;;;9.55;3.65;;;9.40;99.90;;;;;;5082539;28;20388;-52
2022/11/10 02:33:16;;;;;;;8.02;3.60;;;9.40;99.90;;;;;;5082900;28;20028;-56
2022/11/10 02:35:42;;;;;;;4.47;3.03;;;9.30;99.90;;;;;;5100794;22;20095;-57
2022/11/10 02:38:08;;;;;;;4.85;2.53;;;9.30;99.90;;;;;;5039442;28;20029;-57
2022/11/10 02:40:33;;;;;;;10.52;3.83;;;9.30;99.90;;;;;;5058119;28;20025;-54
2022/11/10 02:42:59;;;;;;;5.20;2.85;;;9.30;99.90;;;;;;5057351;28;20116;-57
2022/11/10 02:45:24;;;;;;;5.50;3.40;;;9.30;99.90;;;;;;5057147;28;20069;-55
2022/11/10 02:47:50;;;;;;;6.25;2.65;;;9.30;99.90;;;;;;5062235;28;20050;-56
2022/11/10 02:50:16;;;;;;;13.77;3.03;;;9.30;99.90;;;;;;5051210;28;20049;-57
2022/11/10 02:52:42;;;;;;;4.82;3.55;;;9.20;99.90;;;;;;5064410;28;20059;-57
2022/11/10 02:55:08;;;;;;;6.32;2.85;;;9.20;99.90;;;;;;5057709;28;20047;-58
2022/11/10 02:57:34;;;;;;;11.43;2.85;;;9.20;99.90;;;;;;5059630;28;20064;-56
2022/11/10 02:59:59;;;;;;;6.70;2.83;;;9.20;99.90;;;;;;5053839;28;20584;-57
2022/11/10 03:02:25;;;;;;;4.85;2.38;;;9.10;99.90;;;;;;5052159;28;20025;-57
2022/11/10 03:04:50;;;;;;;5.28;2.60;;;9.10;99.90;;;;;;5050615;28;20025;-57
2022/11/10 03:07:16;;;;;;;8.35;3.28;;;9.00;99.90;;;;;;5062425;28;20029;-58
2022/11/10 03:09:41;;;;;;;6.10;2.70;;;9.10;99.90;;;;;;5062544;28;20446;-54
2022/11/10 03:12:07;;;;;;;6.20;3.38;;;9.00;99.90;;;;;;5059250;28;20250;-54
2022/11/10 03:14:32;;;;;;;5.97;3.20;;;9.00;99.90;;;;;;5060203;28;20029;-55
2022/11/10 03:16:58;;;;;;;4.63;3.33;;;9.00;99.90;;;;;;5060723;28;20032;-57
2022/11/10 03:19:23;;;;;;;8.85;2.97;;;9.00;99.90;;;;;;5058744;28;20032;-57
2022/11/10 03:21:49;;;;;;;4.13;2.78;;;9.00;99.90;;;;;;5063739;28;20518;-56
2022/11/10 03:24:14;;;;;;;5.28;3.50;;;9.00;99.90;;;;;;5062261;28;20447;-55
2022/11/10 03:26:40;;;;;;;5.65;3.33;;;8.90;99.90;;;;;;5058756;28;20021;-55
2022/11/10 03:29:06;;;;;;;7.60;3.13;;;8.90;99.90;;;;;;5058523;28;20393;-57
2022/11/10 03:31:31;;;;;;;7.55;3.35;;;8.90;99.90;;;;;;5056326;28;20035;-56
2022/11/10 03:33:57;;;;;;;7.30;3.40;;;8.80;99.90;;;;;;5060805;28;20086;-53
2022/11/10 03:36:23;;;;;;;4.72;3.35;;;8.90;99.90;;;;;;5057743;28;20033;-56
2022/11/10 03:38:51;;;;;;;6.97;4.57;;;8.80;99.90;;;;;;5058070;28;20598;-56
2022/11/10 03:41:17;;;;;;;7.55;4.13;;;8.80;99.90;;;;;;5053471;28;20028;-57
2022/11/10 03:43:42;;;;;;;7.65;4.88;;;8.80;99.90;;;;;;5053384;28;20028;-55
2022/11/10 03:46:08;;;;;;;6.22;4.22;;;8.80;99.90;;;;;;5056635;28;20032;-56
2022/11/10 03:48:34;;;;;;;6.78;4.20;;;8.70;99.90;;;;;;5051921;28;20047;-56
2022/11/10 03:50:59;;;;;;;7.97;4.57;;;8.70;99.90;;;;;;5059743;28;20037;-54
2022/11/10 03:53:25;;;;;;;8.95;4.45;;;8.70;99.90;;;;;;5050973;28;20617;-56
2022/11/10 03:55:50;;;;;;;9.43;4.28;;;8.70;99.90;;;;;;5059648;28;20541;-55
2022/11/10 03:58:16;;;;;;;6.93;4.60;;;8.60;99.90;;;;;;5062929;28;20036;-53
2022/11/10 04:00:41;;;;;;;9.35;4.57;;;8.60;99.90;;;;;;5060198;28;20029;-54
2022/11/10 04:03:07;;;;;;;8.40;4.55;;;8.60;99.90;;;;;;5060192;28;20041;-56
2022/11/10 04:11:02;;;;;;;8.73;5.15;;;8.60;99.90;;;;;;5053010;28;20411;-55
2022/11/10 04:16:12;;;;;;;8.35;5.55;;;8.60;99.90;;;;;;5060369;28;20040;-57
2022/11/10 04:18:38;;;;;;;13.48;5.50;;;8.60;99.90;;;;;;5059688;28;20028;-54
2022/11/10 04:21:03;;;;;;;11.32;5.25;;;8.60;99.90;;;;;;5059436;28;20090;-55
2022/11/10 04:23:35;;;;;;;10.98;5.80;;;8.50;99.90;;;;;;5061033;28;20028;-54
2022/11/10 04:26:27;;;;;;;12.65;6.50;;;8.50;99.90;;;;;;5058274;28;20123;-56
2022/11/10 04:28:59;;;;;;;10.98;6.03;;;8.50;99.90;;;;;;5059319;28;20027;-55
2022/11/10 04:31:26;;;;;;;13.45;7.05;;;8.50;99.90;;;;;;5060577;28;20067;-53
2022/11/10 04:33:53;;;;;;;10.13;5.45;;;8.50;99.90;;;;;;5060358;28;20024;-55
2022/11/10 04:36:21;;;;;;;14.68;7.28;;;8.60;99.90;;;;;;5052301;28;20040;-54
2022/11/10 04:38:46;;;;;;;14.35;8.60;;;8.60;99.90;;;;;;5060503;28;20480;-56
2022/11/10 04:41:13;;;;;;;14.77;8.35;;;8.60;99.90;;;;;;5058064;28;20095;-57
2022/11/10 04:43:39;;;;;;;17.58;8.65;;;8.60;99.90;;;;;;5054745;28;20111;-54
2022/11/10 04:46:06;;;;;;;11.23;8.13;;;8.70;99.90;;;;;;5053385;28;20060;-56
2022/11/10 04:48:33;;;;;;;18.23;9.23;;;8.70;99.90;;;;;;5060479;28;20040;-56
2022/11/10 04:51:03;;;;;;;12.40;8.63;;;8.70;99.90;;;;;;5059230;28;20028;-54
2022/11/10 04:53:29;;;;;;;12.35;9.45;;;8.80;99.90;;;;;;5036757;28;20595;-54
2022/11/10 04:55:54;;;;;;;15.38;9.00;;;8.80;99.90;;;;;;5059255;28;20025;-54
2022/11/10 04:58:20;;;;;;;15.40;9.45;;;8.80;99.90;;;;;;5059981;28;20025;-56
2022/11/10 05:00:46;;;;;;;19.52;9.70;;;8.80;99.90;;;;;;5063988;28;20028;-57
2022/11/10 05:03:12;;;;;;;19.80;10.85;;;8.80;99.90;;;;;;5061353;28;20063;-58
2022/11/10 05:05:38;;;;;;;13.35;8.73;;;8.80;99.90;;;;;;5060757;28;20028;-56
2022/11/10 05:08:04;;;;;;;18.15;9.85;;;8.80;99.90;;;;;;5058338;28;20526;-58
2022/11/10 05:10:30;;;;;;;16.13;9.55;;;8.80;99.90;;;;;;5056800;28;20021;-53
2022/11/10 05:12:56;;;;;;;18.67;9.98;;;8.80;99.90;;;;;;5060578;28;20033;-56
2022/11/10 05:15:23;;;;;;;17.33;10.90;;;8.80;99.90;;;;;;5056419;28;20515;-57
2022/11/10 05:17:53;;;;;;;14.32;10.30;;;8.90;99.90;;;;;;5053639;28;20396;-57
2022/11/10 05:20:21;;;;;;;15.85;9.50;;;8.90;99.90;;;;;;5036991;28;20052;-56
2022/11/10 05:23:36;;;;;;;15.35;9.90;;;8.90;99.90;;;;;;5052236;28;20032;-55
2022/11/10 05:25:36;;;;;;;15.60;9.70;;;8.90;99.90;;;;;;5052204;28;20120;-57
2022/11/10 05:28:03;;;;;;;18.02;10.52;;;8.90;99.90;;;;;;5054915;28;20051;-57
2022/11/10 05:30:28;;;;;;;15.73;9.93;;;8.90;99.90;;;;;;5067177;28;20024;-57
2022/11/10 05:32:54;;;;;;;15.80;10.10;;;8.90;99.90;;;;;;5059905;28;20039;-57
2022/11/10 05:35:20;;;;;;;19.15;10.48;;;8.90;99.90;;;;;;5064146;28;20463;-57
2022/11/10 05:37:45;;;;;;;18.08;11.48;;;8.90;99.90;;;;;;5057762;28;20029;-55
2022/11/10 05:40:11;;;;;;;16.83;10.43;;;8.90;99.90;;;;;;5058782;28;20024;-55
2022/11/10 05:42:48;;;;;;;17.98;10.70;;;8.90;99.90;;;;;;5058269;28;20749;-57
2022/11/10 05:45:14;;;;;;;19.42;12.55;;;8.90;99.90;;;;;;5040703;28;20024;-56
2022/11/10 05:47:43;;;;;;;17.42;12.02;;;8.90;99.90;;;;;;5059803;28;20028;-57
2022/11/10 05:50:09;;;;;;;20.20;11.80;;;8.90;99.90;;;;;;5052587;28;20037;-56
2022/11/10 05:52:34;;;;;;;14.75;11.63;;;9.00;99.90;;;;;;5059608;28;20630;-56
2022/11/10 05:55:00;;;;;;;23.65;12.23;;;9.00;99.90;;;;;;5054073;28;20025;-57
2022/11/10 05:57:26;;;;;;;22.45;12.05;;;9.00;99.90;;;;;;5059490;28;20142;-57
2022/11/10 05:59:52;;;;;;;22.50;12.45;;;9.00;99.90;;;;;;5057075;28;20025;-55
2022/11/10 06:02:17;;;;;;;19.48;12.68;;;9.00;99.90;;;;;;5057003;28;20106;-54
2022/11/10 06:04:45;;;;;;;19.73;12.82;;;9.00;99.90;;;;;;5060111;28;20384;-56
2022/11/10 06:07:11;;;;;;;21.17;12.77;;;9.00;99.90;;;;;;5040717;28;20056;-58
2022/11/10 06:09:36;;;;;;;20.55;13.68;;;9.00;99.90;;;;;;5059259;28;20060;-57
2022/11/10 06:12:03;;;;;;;23.77;12.60;;;9.00;99.90;;;;;;5060465;28;20020;-57
2022/11/10 06:14:28;;;;;;;21.98;13.48;;;9.00;99.90;;;;;;5065660;28;20120;-56
2022/11/10 06:16:54;;;;;;;20.55;13.85;;;9.10;99.90;;;;;;5042110;28;20128;-57
2022/11/10 06:19:20;;;;;;;20.08;13.77;;;9.10;99.90;;;;;;5064043;28;20028;-57
2022/11/10 06:21:45;;;;;;;21.23;13.13;;;9.10;99.90;;;;;;5061194;28;20492;-58
2022/11/10 06:24:11;;;;;;;22.10;13.73;;;9.10;99.90;;;;;;5061079;28;20443;-57
2022/11/10 06:26:37;;;;;;;25.10;13.73;;;9.10;99.90;;;;;;5059345;28;20031;-56
2022/11/10 06:29:02;;;;;;;21.92;11.57;;;9.10;99.90;;;;;;5060970;28;20103;-56
2022/11/10 06:31:28;;;;;;;17.10;11.00;;;9.10;99.90;;;;;;5065064;28;20037;-54
2022/11/10 06:33:54;;;;;;;18.80;11.60;;;9.10;99.90;;;;;;5059140;28;20029;-57
2022/11/10 06:36:20;;;;;;;20.23;11.75;;;9.10;99.90;;;;;;5062168;28;20032;-58
2022/11/10 06:38:45;;;;;;;23.35;11.40;;;9.10;99.90;;;;;;5059356;28;20032;-55
2022/11/10 06:41:11;;;;;;;17.88;11.48;;;9.00;99.90;;;;;;5060960;28;20059;-58
2022/11/10 06:43:37;;;;;;;13.68;10.25;;;9.00;99.90;;;;;;5059904;28;20516;-56
2022/11/10 06:46:02;;;;;;;27.35;14.15;;;9.10;99.90;;;;;;5060016;28;20086;-56
2022/11/10 06:48:28;;;;;;;16.30;10.70;;;9.00;99.90;;;;;;5060194;28;20037;-57
2022/11/10 06:50:53;;;;;;;19.15;11.00;;;9.10;99.90;;;;;;5059120;28;20639;-55
2022/11/10 06:53:19;;;;;;;15.80;10.38;;;9.10;99.90;;;;;;5054384;28;20087;-54
2022/11/10 06:55:44;;;;;;;20.20;10.57;;;9.10;99.90;;;;;;5058831;28;20033;-56
2022/11/10 06:58:10;;;;;;;18.92;10.23;;;9.10;99.90;;;;;;5060495;28;20082;-57
2022/11/10 07:00:36;;;;;;;16.23;10.38;;;9.10;99.90;;;;;;5055824;28;20040;-57
2022/11/10 07:03:04;;;;;;;14.07;9.38;;;9.10;99.90;;;;;;5063296;28;20025;-57
2022/11/10 07:05:31;;;;;;;18.83;9.60;;;9.10;99.90;;;;;;5061867;28;20119;-54
2022/11/10 07:08:15;;;;;;;22.35;10.38;;;9.00;99.90;;;;;;5060489;28;20033;-57
2022/11/10 07:10:41;;;;;;;16.67;9.23;;;9.00;99.90;;;;;;5062120;28;20024;-57
2022/11/10 07:13:09;;;;;;;16.77;9.43;;;9.00;99.90;;;;;;5061631;28;20025;-53
2022/11/10 07:15:35;;;;;;;17.35;9.52;;;9.00;99.90;;;;;;5060218;28;20082;-57
2022/11/10 07:18:02;;;;;;;15.77;8.80;;;9.10;99.90;;;;;;5054467;28;20056;-58
2022/11/10 07:20:28;;;;;;;16.00;9.65;;;9.10;99.90;;;;;;5059251;28;20477;-55
2022/11/10 07:22:59;;;;;;;19.58;9.82;;;9.10;99.90;;;;;;5059595;28;20027;-53
2022/11/10 07:25:24;;;;;;;20.08;8.63;;;9.10;99.90;;;;;;5057665;28;20056;-56
2022/11/10 07:27:58;;;;;;;12.77;8.52;;;9.10;99.90;;;;;;5060435;28;20109;-54
2022/11/10 07:30:25;;;;;;;18.25;9.00;;;9.00;99.90;;;;;;5056878;28;20103;-55
2022/11/10 07:33:12;;;;;;;12.95;7.45;;;9.10;99.90;;;;;;5060832;28;20021;-56
2022/11/10 07:35:38;;;;;;;11.32;8.32;;;9.10;99.90;;;;;;5057232;28;20065;-57
2022/11/10 07:38:06;;;;;;;14.25;8.45;;;9.10;99.90;;;;;;5059409;28;20016;-57
2022/11/10 07:40:32;;;;;;;14.93;9.20;;;9.20;99.90;;;;;;5058257;28;20377;-58
2022/11/10 07:42:58;;;;;;;13.10;8.88;;;9.30;99.90;;;;;;5055007;28;20503;-58
2022/11/10 07:45:24;;;;;;;17.67;9.63;;;9.30;99.90;;;;;;5056162;28;20028;-58
2022/11/10 07:47:50;;;;;;;19.20;9.63;;;9.40;99.90;;;;;;5057557;28;20028;-58
2022/11/10 07:50:16;;;;;;;21.30;9.95;;;9.40;99.90;;;;;;5050748;28;20032;-56
2022/11/10 07:52:42;;;;;;;17.17;11.27;;;9.40;99.90;;;;;;5057167;28;20404;-56
2022/11/10 07:55:08;;;;;;;14.18;10.15;;;9.50;99.90;;;;;;5057732;28;20029;-55
2022/11/10 07:57:33;;;;;;;24.58;12.38;;;9.50;99.90;;;;;;5057143;28;20071;-57
2022/11/10 07:59:59;;;;;;;18.98;11.63;;;9.50;99.90;;;;;;5050948;28;20039;-53
2022/11/10 08:02:25;;;;;;;20.50;12.90;;;9.50;99.90;;;;;;5059549;28;20366;-55
2022/11/10 08:04:51;;;;;;;24.80;12.05;;;9.50;99.90;;;;;;5058278;28;20021;-53
2022/11/10 08:07:17;;;;;;;22.60;12.98;;;9.50;99.90;;;;;;5055901;28;20086;-56
2022/11/10 08:09:42;;;;;;;23.75;13.70;;;9.50;99.90;;;;;;5051712;28;20090;-56
2022/11/10 08:12:08;;;;;;;25.35;13.25;;;9.60;99.90;;;;;;5040156;28;20523;-56
2022/11/10 08:14:33;;;;;;;22.70;14.38;;;9.70;99.90;;;;;;5057835;28;20048;-55
2022/11/10 08:16:59;;;;;;;21.60;13.48;;;9.70;99.90;;;;;;5041291;28;20378;-57
2022/11/10 08:19:24;;;;;;;23.67;14.68;;;9.80;99.90;;;;;;5062524;28;20028;-58
2022/11/10 08:21:50;;;;;;;26.75;14.20;;;9.80;99.90;;;;;;5039617;28;20020;-55
2022/11/10 08:24:15;;;;;;;29.67;14.95;;;9.80;99.90;;;;;;5063789;28;20025;-57
2022/11/10 08:26:41;;;;;;;21.92;13.98;;;9.90;99.90;;;;;;5057318;28;20384;-57
2022/11/10 08:29:06;;;;;;;19.92;14.18;;;9.90;99.90;;;;;;5065156;28;20021;-58
2022/11/10 08:31:33;;;;;;;19.38;14.15;;;10.00;99.90;;;;;;5057437;28;20504;-56
2022/11/10 08:33:58;;;;;;;26.30;13.63;;;10.00;99.90;;;;;;5058698;28;20452;-57
2022/11/10 08:36:24;;;;;;;22.65;14.32;;;10.00;99.90;;;;;;5073560;22;20037;-79
2022/11/10 08:38:50;;;;;;;22.73;14.45;;;10.00;99.90;;;;;;5065463;28;20096;-79
2022/11/10 08:41:15;;;;;;;27.30;13.82;;;10.10;99.90;;;;;;5064018;28;20096;-79
2022/11/10 08:43:41;;;;;;;21.25;12.98;;;10.10;99.90;;;;;;5050719;28;20017;-79
2022/11/10 08:46:07;;;;;;;26.38;13.68;;;10.10;99.90;;;;;;5059029;28;20017;-78
2022/11/10 08:48:33;;;;;;;22.08;13.98;;;10.20;99.90;;;;;;5052002;28;20021;-79
2022/11/10 08:51:00;;;;;;;23.83;13.52;;;10.20;99.90;;;;;;5040794;28;20441;-78
2022/11/10 08:53:25;;;;;;;20.95;13.80;;;10.30;99.90;;;;;;5037556;28;20102;-78
2022/11/10 08:55:54;;;;;;;22.30;13.82;;;10.30;99.90;;;;;;5056510;28;20033;-77
2022/11/10 08:58:22;;;;;;;23.52;14.68;;;10.40;99.90;;;;;;5034722;28;20091;-77
2022/11/10 09:00:50;;;;;;;20.55;12.80;;;10.40;99.90;;;;;;5038497;28;20031;-78
2022/11/10 09:03:24;;;;;;;25.13;14.25;;;10.40;99.90;;;;;;5035986;28;20029;-77
2022/11/10 09:05:51;;;;;;;29.65;14.20;;;10.50;99.90;;;;;;5043011;28;20366;-77
2022/11/10 09:08:17;;;;;;;21.45;13.80;;;10.50;99.90;;;;;;5056335;28;20021;-79
2022/11/10 09:10:49;;;;;;;22.95;13.50;;;10.50;99.90;;;;;;5040219;28;20763;-79
2022/11/10 09:13:16;;;;;;;22.05;12.85;;;10.50;99.90;;;;;;5039579;28;20523;-79
2022/11/10 09:15:42;;;;;;;19.98;13.32;;;10.60;99.90;;;;;;5051398;28;20027;-78
2022/11/10 09:18:10;;;;;;;19.50;13.07;;;10.60;99.90;;;;;;5060997;28;20029;-77
2022/11/10 09:20:37;;;;;;;19.98;12.77;;;10.70;99.90;;;;;;5034943;28;20488;-79
2022/11/10 09:23:11;;;;;;;21.33;14.30;;;10.80;99.90;;;;;;5039678;28;20021;-78
2022/11/10 09:25:37;;;;;;;19.00;13.07;;;10.80;99.90;;;;;;5059337;28;20100;-78
2022/11/10 09:28:03;;;;;;;21.52;13.45;;;10.90;99.90;;;;;;5058786;28;20107;-78
2022/11/10 09:30:29;;;;;;;24.33;13.05;;;11.00;99.90;;;;;;5038831;28;20128;-79
2022/11/10 09:32:59;;;;;;;22.70;13.45;;;11.00;99.90;;;;;;5035812;28;20029;-78
2022/11/10 09:35:25;;;;;;;21.42;13.05;;;11.00;99.90;;;;;;5040008;28;20029;-79
2022/11/10 09:37:51;;;;;;;23.75;13.52;;;11.00;99.90;;;;;;5051404;28;20035;-79
2022/11/10 09:40:21;;;;;;;19.85;12.75;;;11.10;99.90;;;;;;5064014;28;20115;-79
2022/11/10 09:42:47;;;;;;;24.15;13.15;;;11.10;99.90;;;;;;5055394;28;20489;-79
2022/11/10 09:45:18;;;;;;;19.20;12.15;;;11.10;99.90;;;;;;5046719;28;20020;-77
2022/11/10 09:48:00;;;;;;;22.98;12.73;;;11.20;99.90;;;;;;5061356;28;20017;-78
2022/11/10 09:50:36;;;;;;;23.20;13.70;;;11.20;99.90;;;;;;5035727;28;20077;-78
2022/11/10 09:53:04;;;;;;;24.17;13.25;;;11.30;99.90;;;;;;5071286;28;20024;-79
2022/11/10 09:55:48;;;;;;;23.35;13.35;;;11.40;99.90;;;;;;5041376;28;20029;-78
2022/11/10 09:58:15;;;;;;;21.35;12.35;;;11.40;99.90;;;;;;5042701;28;20029;-79
2022/11/10 10:00:45;;;;;;;20.42;12.82;;;11.50;99.90;;;;;;5049554;28;20019;-78
2022/11/10 10:03:18;;;;;;;17.50;11.70;;;11.50;99.90;;;;;;5049840;28;20024;-79
2022/11/10 10:05:56;;;;;;;21.80;12.85;;;11.60;99.90;;;;;;5053654;28;20027;-78
2022/11/10 10:08:35;;;;;;;26.77;12.80;;;11.50;99.90;;;;;;5040988;28;20024;-80
2022/11/10 10:11:25;;;;;;;17.30;11.77;;;11.60;99.90;;;;;;5039386;28;20025;-78
2022/11/10 10:14:16;;;;;;;18.20;12.30;;;11.60;99.90;;;;;;5048819;28;20142;-78
2022/11/10 10:17:19;;;;;;;19.00;11.90;;;11.60;99.90;;;;;;5048578;28;20025;-78
2022/11/10 10:19:58;;;;;;;23.05;12.27;;;11.60;99.90;;;;;;5065516;28;20472;-79
2022/11/10 10:22:49;;;;;;;16.60;11.55;;;11.60;99.90;;;;;;5059037;28;20029;-78
2022/11/10 10:25:21;;;;;;;22.83;11.50;;;11.70;99.90;;;;;;5048858;28;20025;-77
2022/11/10 10:27:56;;;;;;;19.23;11.45;;;11.70;99.90;;;;;;5052909;28;20060;-78
2022/11/10 10:30:22;;;;;;;17.45;10.93;;;11.70;99.90;;;;;;5037929;28;20025;-78
2022/11/10 10:32:55;;;;;;;17.15;10.45;;;11.70;99.90;;;;;;5070407;28;20031;-79
2022/11/10 10:35:22;;;;;;;18.38;9.52;;;11.70;99.90;;;;;;5040855;28;20461;-79
2022/11/10 10:37:51;;;;;;;20.17;10.80;;;11.70;99.90;;;;;;5038989;28;20082;-78
2022/11/10 10:40:19;;;;;;;23.55;11.05;;;11.70;99.90;;;;;;5073369;28;20450;-79
2022/11/10 10:42:45;;;;;;;22.77;12.07;;;11.80;99.90;;;;;;5038454;28;20025;-79
2022/11/10 10:45:12;;;;;;;17.25;10.65;;;11.90;99.90;;;;;;5069951;28;20090;-79
2022/11/10 10:47:38;;;;;;;23.75;10.52;;;12.00;99.90;;;;;;5048728;28;20020;-80
2022/11/10 10:50:22;;;;;;;17.23;10.30;;;12.10;99.90;;;;;;5061751;28;20021;-79
2022/11/10 10:53:11;;;;;;;22.80;10.68;;;12.20;99.90;;;;;;5061452;28;20135;-79
2022/11/10 10:55:38;;;;;;;18.33;10.13;;;12.10;99.90;;;;;;5040134;28;20098;-79
2022/11/10 10:58:37;;;;;;;15.80;10.75;;;12.20;99.90;;;;;;5051682;28;20020;-79
2022/11/10 11:01:15;;;;;;;17.80;10.75;;;12.20;99.90;;;;;;4983687;28;20086;-79
2022/11/10 11:03:46;;;;;;;21.13;10.02;;;12.20;99.90;;;;;;5042618;28;20032;-79
2022/11/10 11:06:15;;;;;;;18.60;10.32;;;12.20;99.90;;;;;;5033929;28;20029;-79
2022/11/10 11:08:59;;;;;;;17.65;10.20;;;12.20;99.90;;;;;;5043611;28;20014;-78
2022/11/10 11:11:36;;;;;;;14.73;8.80;;;12.20;99.90;;;;;;5042827;28;20032;-80
2022/11/10 11:14:22;;;;;;;22.10;10.13;;;12.30;99.90;;;;;;5030910;28;20026;-79
2022/11/10 11:16:53;;;;;;;17.85;9.25;;;12.30;99.90;;;;;;5065891;28;20099;-79
2022/11/10 11:19:23;;;;;;;19.20;9.52;;;12.40;99.90;;;;;;5034099;28;20025;-79
2022/11/10 11:22:25;;;;;;;20.33;9.25;;;12.40;99.90;;;;;;5039388;28;20600;-79
2022/11/10 11:25:12;;;;;;;15.02;7.97;;;12.50;99.90;;;;;;5063949;28;20544;-79
2022/11/10 11:28:14;;;;;;;20.95;9.40;;;12.50;99.90;;;;;;5047857;28;20032;-80
2022/11/10 11:31:04;;;;;;;16.50;9.15;;;12.50;99.90;;;;;;5046298;28;20020;-78
2022/11/10 11:33:40;;;;;;;12.52;8.48;;;12.40;99.90;;;;;;5071952;28;20020;-80
2022/11/10 11:36:15;;;;;;;;;;;12.40;99.90;;;;;;5055533;28;20082;-79
2022/11/10 11:38:57;;;;;;;12.52;8.30;;;12.40;99.90;;;;;;5090337;22;19930;-53
2022/11/10 11:41:37;;;;;;;13.48;8.65;;;12.40;99.90;;;;;;5100013;28;20031;-55
2022/11/10 11:44:33;;;;;;;19.88;8.98;;;12.50;99.90;;;;;;5104160;28;20015;-53
2022/11/10 11:47:30;;;;;;;16.40;9.70;;;12.50;99.90;;;;;;5109126;28;20016;-56
2022/11/10 11:50:22;;;;;;;13.73;8.32;;;12.60;99.90;;;;;;5105020;28;20074;-54
2022/11/10 11:53:15;;;;;;;14.82;8.88;;;12.60;99.90;;;;;;5104618;28;20019;-57
2022/11/10 11:55:46;;;;;;;15.20;7.90;;;12.70;99.90;;;;;;5101252;28;20045;-54
2022/11/10 11:58:33;;;;;;;20.00;8.93;;;12.70;99.90;;;;;;5107335;28;20032;-57
2022/11/10 12:01:28;;;;;;;15.40;8.73;;;12.70;99.90;;;;;;5085190;28;20019;-53
2022/11/10 12:04:13;;;;;;;14.93;7.22;;;12.70;99.90;;;;;;5079871;28;20026;-58
2022/11/10 12:06:56;;;;;;;11.45;7.95;;;12.80;99.90;;;;;;5105560;28;20474;-53
2022/11/10 12:09:30;;;;;;;14.77;7.53;;;12.80;99.90;;;;;;5104707;28;20020;-55
2022/11/10 12:12:23;;;;;;;10.73;7.28;;;12.80;99.90;;;;;;5108761;28;20419;-51
2022/11/10 12:15:26;;;;;;;15.10;6.90;;;12.80;99.90;;;;;;5106405;28;20118;-54
2022/11/10 12:18:28;;;;;;;13.38;6.22;;;12.80;99.90;;;;;;5109478;28;20026;-54
2022/11/10 12:21:17;;;;;;;10.65;6.18;;;12.90;99.90;;;;;;5109064;28;20031;-55
2022/11/10 12:24:07;;;;;;;10.88;6.70;;;12.80;99.90;;;;;;5105319;28;20031;-54
2022/11/10 12:26:58;;;;;;;18.77;6.95;;;12.80;99.90;;;;;;5107464;28;20050;-55
2022/11/10 12:29:26;;;;;;;11.70;6.55;;;12.80;99.90;;;;;;5107445;28;20027;-53
2022/11/10 12:31:57;;;;;;;14.63;6.50;;;12.80;99.90;;;;;;5108433;28;20047;-54
2022/11/10 12:34:41;;;;;;;16.52;6.45;;;12.80;99.90;;;;;;5108268;28;20113;-53
2022/11/10 12:37:24;;;;;;;16.77;7.13;;;12.70;99.90;;;;;;5105308;28;20093;-51
2022/11/10 12:40:15;;;;;;;15.18;6.70;;;12.70;99.90;;;;;;5108661;28;20522;-52
2022/11/10 12:42:44;;;;;;;10.93;5.25;;;12.70;99.90;;;;;;5107399;28;20181;-53
2022/11/10 12:45:20;;;;;;;14.13;6.47;;;12.70;99.90;;;;;;5090881;28;20036;-56
2022/11/10 12:47:46;;;;;;;17.13;6.15;;;12.60;99.90;;;;;;5108601;28;20039;-55
2022/11/10 12:50:15;;;;;;;14.00;5.65;;;12.60;99.90;;;;;;5109226;28;20749;-55
2022/11/10 12:52:53;;;;;;;12.32;5.90;;;12.60;99.90;;;;;;5106150;28;20035;-52
2022/11/10 12:55:40;;;;;;;10.82;5.47;;;12.70;99.90;;;;;;5108150;28;20514;-52
2022/11/10 12:58:10;;;;;;;11.98;5.53;;;12.70;99.90;;;;;;5104897;28;20031;-53
2022/11/10 13:00:55;;;;;;;13.82;5.97;;;12.70;99.90;;;;;;5106437;28;20019;-55
2022/11/10 13:03:38;;;;;;;12.57;5.20;;;12.60;99.90;;;;;;5106448;28;20035;-52
2022/11/10 13:06:30;;;;;;;9.82;5.32;;;12.60;99.90;;;;;;5106877;28;20012;-54